Time;durP1;ratioP1;P1;durP2;ratioP2;P2;SDS_P1;SDS_P2;PMS_P1;PMS_P2;Temp;Humidity;BMP_temperature;BMP_pressure;BME280_temperature;BME280_humidity;BME280_pressure;Samples;Min_cycle;Max_cycle;Signal;HPM_P1;HPM_P2
2021/01/25 00:00:37;;;;;;;2.20;0.82;;;1.00;69.00;;;;;;5034659;28;20033;-73
2021/01/25 00:03:03;;;;;;;0.88;0.57;;;1.00;69.00;;;;;;5035667;28;20053;-73
2021/01/25 00:05:31;;;;;;;0.70;0.60;;;1.00;68.90;;;;;;5035663;28;20208;-83
2021/01/25 00:07:56;;;;;;;1.38;0.90;;;1.00;69.00;;;;;;5035676;28;20126;-73
2021/01/25 00:10:22;;;;;;;0.68;0.68;;;1.10;69.00;;;;;;5035528;28;20363;-74
2021/01/25 00:12:47;;;;;;;0.90;0.50;;;1.10;69.00;;;;;;5035450;28;20029;-74
2021/01/25 00:15:14;;;;;;;1.23;0.80;;;1.10;69.10;;;;;;5035393;28;20087;-82
2021/01/25 00:17:39;;;;;;;0.95;0.68;;;1.10;68.90;;;;;;5035339;28;20034;-74
2021/01/25 00:20:05;;;;;;;1.63;0.70;;;1.10;69.10;;;;;;5035411;28;20105;-82
2021/01/25 00:22:31;;;;;;;1.45;0.80;;;1.10;69.00;;;;;;5034245;28;20569;-82
2021/01/25 00:24:56;;;;;;;2.50;1.13;;;1.10;69.10;;;;;;5035373;28;20041;-82
2021/01/25 00:27:22;;;;;;;1.75;0.82;;;1.10;69.00;;;;;;5035338;28;20525;-83
2021/01/25 00:29:47;;;;;;;1.17;0.77;;;1.10;69.00;;;;;;5035276;28;20406;-74
2021/01/25 00:32:13;;;;;;;0.98;0.73;;;1.20;69.00;;;;;;5033919;28;20043;-83
2021/01/25 00:34:39;;;;;;;1.10;0.70;;;1.20;68.80;;;;;;5034085;28;20501;-83
2021/01/25 00:37:05;;;;;;;2.15;0.82;;;1.10;68.80;;;;;;5035790;28;20021;-77
2021/01/25 00:39:30;;;;;;;1.23;0.77;;;1.10;69.00;;;;;;5036468;28;20451;-83
2021/01/25 00:41:56;;;;;;;1.02;0.70;;;1.10;69.00;;;;;;5036721;28;20030;-81
2021/01/25 00:44:21;;;;;;;2.40;0.98;;;1.20;68.90;;;;;;5040582;28;20092;-83
2021/01/25 00:46:47;;;;;;;0.95;0.80;;;1.20;68.60;;;;;;5036113;28;20079;-82
2021/01/25 00:49:13;;;;;;;1.90;1.35;;;1.20;68.40;;;;;;5036258;28;20057;-74
2021/01/25 00:51:38;;;;;;;0.70;0.63;;;1.20;68.40;;;;;;5044521;28;20033;-79
2021/01/25 00:54:04;;;;;;;1.95;1.20;;;1.30;68.40;;;;;;5035921;28;20064;-83
2021/01/25 00:56:29;;;;;;;1.88;0.80;;;1.30;68.40;;;;;;5036098;28;20095;-82
2021/01/25 00:58:55;;;;;;;1.40;0.80;;;1.40;68.30;;;;;;5040303;28;20497;-82
2021/01/25 01:01:21;;;;;;;1.30;0.70;;;1.40;68.40;;;;;;5043168;28;20436;-83
2021/01/25 01:03:46;;;;;;;1.35;0.75;;;1.40;68.30;;;;;;5035724;28;20058;-80
2021/01/25 01:06:12;;;;;;;2.10;1.05;;;1.50;68.30;;;;;;5035888;28;20103;-82
2021/01/25 01:08:37;;;;;;;1.38;0.85;;;1.50;68.10;;;;;;5033734;28;20025;-82
2021/01/25 01:11:03;;;;;;;2.15;0.75;;;1.50;68.10;;;;;;5035097;28;20025;-78
2021/01/25 01:13:28;;;;;;;1.13;0.80;;;1.50;68.10;;;;;;5034839;28;20367;-82
2021/01/25 01:15:54;;;;;;;1.92;1.00;;;1.50;68.10;;;;;;5034980;28;20034;-79
2021/01/25 01:18:19;;;;;;;2.17;0.95;;;1.50;67.90;;;;;;5033340;28;20079;-76
2021/01/25 01:20:45;;;;;;;3.08;1.20;;;1.50;67.70;;;;;;5034698;28;20029;-77
2021/01/25 01:23:11;;;;;;;2.30;1.10;;;1.50;67.60;;;;;;5034295;28;20033;-79
2021/01/25 01:25:36;;;;;;;2.92;1.58;;;1.50;67.50;;;;;;5034076;28;20116;-75
2021/01/25 01:28:02;;;;;;;3.58;1.90;;;1.50;67.60;;;;;;5032930;28;20018;-76
2021/01/25 01:30:27;;;;;;;1.52;1.42;;;1.50;67.80;;;;;;5034029;28;20052;-73
2021/01/25 01:32:53;;;;;;;3.42;1.75;;;1.50;67.70;;;;;;5033984;28;20064;-73
2021/01/25 01:35:18;;;;;;;2.65;1.55;;;1.40;67.80;;;;;;5033498;28;20270;-72
2021/01/25 01:37:44;;;;;;;3.00;1.65;;;1.40;67.80;;;;;;5033869;28;20020;-74
2021/01/25 01:40:12;;;;;;;5.20;1.98;;;1.40;67.90;;;;;;5033832;28;20022;-72
2021/01/25 01:42:38;;;;;;;6.22;2.13;;;1.40;68.10;;;;;;5032506;28;20378;-74
2021/01/25 01:45:06;;;;;;;2.75;2.10;;;1.40;68.00;;;;;;5033769;28;20108;-73
2021/01/25 01:47:35;;;;;;;4.68;2.63;;;1.30;68.30;;;;;;5033665;28;20041;-74
2021/01/25 01:50:01;;;;;;;4.30;2.83;;;1.30;68.50;;;;;;5032401;28;20386;-73
2021/01/25 01:52:27;;;;;;;3.80;2.42;;;1.30;68.50;;;;;;5033602;28;20032;-73
2021/01/25 01:54:59;;;;;;;3.10;2.42;;;1.30;68.60;;;;;;5033508;28;20037;-74
2021/01/25 01:57:26;;;;;;;3.85;2.35;;;1.30;68.80;;;;;;5033517;28;20017;-74
2021/01/25 01:59:52;;;;;;;3.92;2.40;;;1.30;68.80;;;;;;5032370;28;20039;-72
2021/01/25 02:02:18;;;;;;;3.00;2.03;;;1.30;68.90;;;;;;5033318;28;20120;-73
2021/01/25 02:04:45;;;;;;;4.75;2.35;;;1.20;71.30;;;;;;5033836;28;20053;-73
2021/01/25 02:07:11;;;;;;;3.22;2.35;;;1.00;73.80;;;;;;5033275;28;20037;-74
2021/01/25 02:09:42;;;;;;;3.03;2.17;;;0.90;75.20;;;;;;5033465;28;20030;-74
2021/01/25 02:12:09;;;;;;;5.47;2.45;;;1.00;76.50;;;;;;5033289;28;20091;-77
2021/01/25 02:14:37;;;;;;;6.43;2.15;;;1.00;76.90;;;;;;5033152;28;20065;-78
2021/01/25 02:17:02;;;;;;;3.67;2.00;;;1.00;77.20;;;;;;5033779;28;20022;-74
2021/01/25 02:19:48;;;;;;;2.90;1.70;;;1.10;77.80;;;;;;5033725;28;20030;-73
2021/01/25 02:22:16;;;;;;;2.75;1.98;;;1.10;78.70;;;;;;5034166;28;20583;-74
2021/01/25 02:24:52;;;;;;;2.22;1.55;;;1.10;79.20;;;;;;5034000;28;20466;-72
2021/01/25 02:27:32;;;;;;;3.50;1.70;;;1.00;79.90;;;;;;5034125;28;20033;-72
2021/01/25 02:29:59;;;;;;;3.00;1.85;;;0.90;81.40;;;;;;5034341;28;20029;-72
2021/01/25 02:32:26;;;;;;;4.15;1.55;;;0.80;82.30;;;;;;5034223;28;20071;-72
2021/01/25 02:34:53;;;;;;;1.67;1.30;;;0.80;83.20;;;;;;5033837;28;20033;-72
2021/01/25 02:37:20;;;;;;;1.35;1.20;;;0.70;83.80;;;;;;5033931;28;20063;-72
2021/01/25 02:39:47;;;;;;;4.53;1.73;;;0.70;84.10;;;;;;5034027;28;20022;-73
2021/01/25 02:42:14;;;;;;;3.58;1.65;;;0.70;85.00;;;;;;5033840;28;20036;-72
2021/01/25 02:44:40;;;;;;;5.32;1.60;;;0.70;85.20;;;;;;5035695;28;20105;-72
2021/01/25 02:47:06;;;;;;;4.38;1.55;;;0.70;85.10;;;;;;5038638;28;20032;-71
2021/01/25 02:49:32;;;;;;;3.67;1.88;;;0.70;84.90;;;;;;5041026;28;20101;-74
2021/01/25 02:51:58;;;;;;;2.03;1.73;;;0.80;84.80;;;;;;5038231;28;20029;-72
2021/01/25 02:54:23;;;;;;;3.28;1.98;;;0.80;84.30;;;;;;5046224;28;20067;-73
2021/01/25 02:56:49;;;;;;;5.55;2.33;;;0.80;84.10;;;;;;5042566;28;20030;-72
2021/01/25 02:59:15;;;;;;;4.78;1.90;;;0.80;84.00;;;;;;5036737;28;20036;-72
2021/01/25 03:01:44;;;;;;;4.00;2.25;;;0.80;83.90;;;;;;5036448;28;20029;-72
2021/01/25 03:04:10;;;;;;;4.35;2.20;;;0.90;83.90;;;;;;5036712;28;20029;-73
2021/01/25 03:06:37;;;;;;;4.18;2.03;;;1.00;83.80;;;;;;5036844;28;20025;-72
2021/01/25 03:09:03;;;;;;;2.95;1.73;;;0.90;83.60;;;;;;5036854;28;20026;-73
2021/01/25 03:11:28;;;;;;;2.15;1.67;;;0.90;83.60;;;;;;5036538;28;20411;-74
2021/01/25 03:14:05;;;;;;;2.63;1.35;;;1.00;83.50;;;;;;5036500;28;20040;-73
2021/01/25 03:16:31;;;;;;;2.80;1.40;;;1.00;83.50;;;;;;5036417;28;20025;-72
2021/01/25 03:18:56;;;;;;;2.58;1.40;;;1.10;83.20;;;;;;5036422;28;20382;-72
2021/01/25 03:21:22;;;;;;;3.17;1.40;;;1.00;82.80;;;;;;5036351;28;20025;-72
2021/01/25 03:23:47;;;;;;;2.05;1.52;;;1.00;82.80;;;;;;5036225;28;20390;-73
2021/01/25 03:26:14;;;;;;;3.03;1.25;;;1.00;82.90;;;;;;5036258;28;20083;-73
2021/01/25 03:28:39;;;;;;;2.38;1.48;;;1.00;82.80;;;;;;5036198;28;20018;-73
2021/01/25 03:31:05;;;;;;;1.45;1.35;;;1.10;82.90;;;;;;5036194;28;20466;-73
2021/01/25 03:33:30;;;;;;;2.90;1.80;;;1.10;82.60;;;;;;5036183;28;20033;-73
2021/01/25 03:35:56;;;;;;;4.20;1.58;;;1.10;82.30;;;;;;5036170;28;20029;-73
2021/01/25 03:38:21;;;;;;;2.67;1.30;;;1.00;82.00;;;;;;5034854;28;20025;-73
2021/01/25 03:40:47;;;;;;;2.75;1.65;;;1.10;82.10;;;;;;5036099;28;20083;-73
2021/01/25 03:43:14;;;;;;;2.55;1.80;;;1.10;81.80;;;;;;5035878;28;20025;-73
2021/01/25 03:45:40;;;;;;;1.80;1.50;;;1.10;81.60;;;;;;5036026;28;20040;-72
2021/01/25 03:48:07;;;;;;;2.92;1.60;;;1.00;81.50;;;;;;5034519;28;20022;-72
2021/01/25 03:50:32;;;;;;;1.95;1.40;;;1.00;81.40;;;;;;5035696;28;20041;-73
2021/01/25 03:53:03;;;;;;;2.70;1.58;;;1.00;81.30;;;;;;5035854;28;20072;-72
2021/01/25 03:55:28;;;;;;;2.25;1.60;;;1.10;81.30;;;;;;5035841;28;20045;-73
2021/01/25 03:57:55;;;;;;;1.98;1.38;;;1.10;81.20;;;;;;5035685;28;20052;-72
2021/01/25 04:00:21;;;;;;;1.77;1.15;;;1.10;81.00;;;;;;5035673;28;20028;-72
2021/01/25 04:02:46;;;;;;;1.85;1.50;;;1.10;81.00;;;;;;5035449;28;20050;-73
2021/01/25 04:05:12;;;;;;;1.30;1.02;;;1.00;80.80;;;;;;5035565;28;20022;-72
2021/01/25 04:07:39;;;;;;;2.13;1.30;;;1.10;80.90;;;;;;5035534;28;20099;-73
2021/01/25 04:10:06;;;;;;;1.90;1.55;;;1.10;80.70;;;;;;5035504;28;20028;-72
2021/01/25 04:12:32;;;;;;;1.98;1.42;;;1.20;80.30;;;;;;5035378;28;20124;-72
2021/01/25 04:14:57;;;;;;;2.13;1.30;;;1.20;79.70;;;;;;5034079;28;20128;-72
2021/01/25 04:17:23;;;;;;;1.25;1.15;;;1.10;79.50;;;;;;5035423;28;20029;-73
2021/01/25 04:19:49;;;;;;;1.58;1.33;;;1.00;79.50;;;;;;5035329;28;20025;-72
2021/01/25 04:22:15;;;;;;;0.80;0.80;;;1.10;79.60;;;;;;5035279;28;20071;-73
2021/01/25 04:24:40;;;;;;;1.38;1.02;;;1.00;79.10;;;;;;5035286;28;20034;-72
2021/01/25 04:27:10;;;;;;;1.48;1.08;;;1.10;79.50;;;;;;5035301;28;20025;-72
2021/01/25 04:29:37;;;;;;;1.00;0.90;;;1.00;80.00;;;;;;5035232;28;20134;-72
2021/01/25 04:32:03;;;;;;;4.70;1.63;;;1.00;80.30;;;;;;5035281;28;20109;-72
2021/01/25 04:34:28;;;;;;;1.40;1.00;;;1.00;80.60;;;;;;5034966;28;20117;-73
2021/01/25 04:36:54;;;;;;;4.43;1.50;;;1.00;81.10;;;;;;5035153;28;20048;-73
2021/01/25 04:39:19;;;;;;;3.30;1.30;;;1.10;81.20;;;;;;5035087;28;20029;-77
2021/01/25 04:41:46;;;;;;;2.90;1.00;;;1.10;81.40;;;;;;5035042;28;20084;-78
2021/01/25 04:44:12;;;;;;;1.33;0.93;;;1.20;81.40;;;;;;5034913;28;20025;-76
2021/01/25 04:46:38;;;;;;;2.58;0.80;;;1.20;81.40;;;;;;5035220;28;20033;-73
2021/01/25 04:49:05;;;;;;;1.08;0.80;;;1.20;81.40;;;;;;5036397;28;20022;-73
2021/01/25 04:51:31;;;;;;;0.52;0.45;;;1.20;81.20;;;;;;5036477;28;20017;-73
2021/01/25 04:53:58;;;;;;;0.65;0.50;;;1.20;81.10;;;;;;5035599;28;20044;-73
2021/01/25 04:56:25;;;;;;;0.95;0.77;;;1.20;81.00;;;;;;5034669;28;20533;-73
2021/01/25 04:58:51;;;;;;;1.58;0.85;;;1.20;81.00;;;;;;5034772;28;20036;-73
2021/01/25 05:01:16;;;;;;;1.67;0.93;;;1.30;81.00;;;;;;5034447;28;20033;-73
2021/01/25 05:03:42;;;;;;;1.48;0.95;;;1.30;80.80;;;;;;5034378;28;20057;-72
2021/01/25 05:06:08;;;;;;;1.23;0.82;;;1.30;80.80;;;;;;5034545;28;20056;-73
2021/01/25 05:08:33;;;;;;;1.58;0.98;;;1.30;80.80;;;;;;5034116;28;20029;-73
2021/01/25 05:11:19;;;;;;;1.13;0.95;;;1.30;80.80;;;;;;5034645;28;20037;-74
2021/01/25 05:13:45;;;;;;;2.90;1.13;;;1.30;80.80;;;;;;5034593;28;20038;-73
2021/01/25 05:16:19;;;;;;;1.42;0.85;;;1.30;80.80;;;;;;5037324;28;20104;-74
2021/01/25 05:18:45;;;;;;;11.10;1.65;;;1.30;80.80;;;;;;5036093;28;20370;-75
2021/01/25 05:21:11;;;;;;;7.32;1.58;;;1.80;92.70;;;;;;5034647;28;20029;-74
2021/01/25 05:23:38;;;;;;;3.03;1.73;;;2.70;98.40;;;;;;5034142;28;20052;-75
2021/01/25 05:26:08;;;;;;;1.88;1.35;;;3.30;96.50;;;;;;5034265;28;20112;-73
2021/01/25 05:28:43;;;;;;;2.05;1.30;;;3.40;89.40;;;;;;5034452;28;20424;-73
2021/01/25 05:31:16;;;;;;;;;;;3.10;83.70;;;;;;5034844;28;20569;-74
2021/01/25 05:33:42;;;;;;;1.65;0.90;;;2.80;81.20;;;;;;5036753;28;19920;-73
2021/01/25 05:36:07;;;;;;;2.25;1.20;;;2.50;79.20;;;;;;5039701;28;20029;-73
2021/01/25 05:38:33;;;;;;;2.83;1.58;;;2.30;78.80;;;;;;5038172;28;20028;-73
2021/01/25 05:40:58;;;;;;;2.88;1.60;;;2.10;78.60;;;;;;5035644;28;20033;-73
2021/01/25 05:43:32;;;;;;;3.03;1.63;;;1.90;78.50;;;;;;5032432;28;20041;-73
2021/01/25 05:46:06;;;;;;;1.75;1.25;;;1.80;78.50;;;;;;5033783;28;20091;-73
2021/01/25 05:48:31;;;;;;;2.38;1.45;;;1.70;78.80;;;;;;5033824;28;20046;-72
2021/01/25 05:51:13;;;;;;;2.10;1.38;;;1.50;78.90;;;;;;5033662;28;20503;-73
2021/01/25 05:53:39;;;;;;;1.90;1.40;;;1.50;80.20;;;;;;5033537;28;20470;-73
2021/01/25 05:56:11;;;;;;;3.20;1.80;;;1.50;79.80;;;;;;5033639;28;20034;-73
2021/01/25 05:58:38;;;;;;;2.38;1.60;;;1.40;79.70;;;;;;5033501;28;20040;-72
2021/01/25 06:01:04;;;;;;;6.65;3.42;;;1.40;79.70;;;;;;5033634;28;20029;-73
2021/01/25 06:03:38;;;;;;;15.48;8.50;;;1.40;79.70;;;;;;5033269;28;20379;-73
2021/01/25 06:06:17;;;;;;;38.92;19.15;;;1.40;79.70;;;;;;5033519;28;20467;-74
2021/01/25 06:08:50;;;;;;;39.67;19.70;;;1.40;80.40;;;;;;5033707;28;20447;-73
2021/01/25 06:11:32;;;;;;;31.88;13.90;;;1.30;79.70;;;;;;5033949;28;20029;-73
2021/01/25 06:14:18;;;;;;;22.35;11.30;;;1.20;79.80;;;;;;5037575;28;20040;-72
2021/01/25 06:16:48;;;;;;;22.77;9.48;;;1.30;80.00;;;;;;5033393;28;20025;-72
2021/01/25 06:19:15;;;;;;;20.08;9.35;;;1.20;80.10;;;;;;5033288;28;20057;-73
2021/01/25 06:21:41;;;;;;;20.98;8.93;;;1.20;80.20;;;;;;5032148;28;20040;-72
2021/01/25 06:24:09;;;;;;;16.52;7.85;;;1.20;80.20;;;;;;5033236;28;20029;-73
2021/01/25 06:26:36;;;;;;;11.82;5.60;;;1.20;80.30;;;;;;5033105;28;20359;-72
2021/01/25 06:29:04;;;;;;;9.63;5.47;;;1.10;80.50;;;;;;5033115;28;20034;-72
2021/01/25 06:31:34;;;;;;;8.98;5.10;;;1.20;80.50;;;;;;5033055;28;20113;-72
2021/01/25 06:34:06;;;;;;;11.10;5.60;;;1.10;80.40;;;;;;5032966;28;20040;-73
2021/01/25 06:36:33;;;;;;;8.40;4.63;;;1.20;80.30;;;;;;5032850;28;20467;-73
2021/01/25 06:39:04;;;;;;;5.63;3.75;;;1.10;80.40;;;;;;5032878;28;20037;-72
2021/01/25 06:41:39;;;;;;;6.97;4.03;;;1.10;80.50;;;;;;5032901;28;20030;-72
2021/01/25 06:44:05;;;;;;;;;;;1.10;80.60;;;;;;5033262;28;20024;-72
2021/01/25 06:46:35;;;;;;;;;;;1.10;80.50;;;;;;5033194;28;19916;-72
2021/01/25 06:49:04;;;;;;;7.50;3.95;;;1.20;80.60;;;;;;5032773;28;19931;-72
2021/01/25 06:51:29;;;;;;;8.93;3.67;;;1.20;80.50;;;;;;5032813;28;20029;-80
2021/01/25 06:53:59;;;;;;;6.78;2.92;;;1.20;80.40;;;;;;5032816;28;20038;-79
2021/01/25 06:56:25;;;;;;;4.32;2.33;;;1.20;80.20;;;;;;5032778;28;20032;-79
2021/01/25 06:58:50;;;;;;;10.80;5.22;;;1.20;80.30;;;;;;5032930;28;20033;-78
2021/01/25 07:01:22;;;;;;;13.27;6.30;;;1.20;80.50;;;;;;5031150;28;20100;-80
2021/01/25 07:03:56;;;;;;;7.32;3.75;;;1.20;80.60;;;;;;5032634;28;20416;-79
2021/01/25 07:06:34;;;;;;;6.80;3.40;;;1.20;80.50;;;;;;5032755;28;20474;-80
2021/01/25 07:09:04;;;;;;;9.63;4.05;;;1.20;80.40;;;;;;5032632;28;20103;-80
2021/01/25 07:11:29;;;;;;;9.13;4.00;;;1.20;80.50;;;;;;5032804;28;20032;-77
2021/01/25 07:13:55;;;;;;;9.23;5.10;;;1.20;80.60;;;;;;5032832;28;20448;-82
2021/01/25 07:16:23;;;;;;;8.75;4.78;;;1.20;80.60;;;;;;5032627;28;20095;-82
2021/01/25 07:18:51;;;;;;;11.85;5.10;;;1.20;80.60;;;;;;5032588;28;20029;-81
2021/01/25 07:21:18;;;;;;;9.27;5.15;;;1.30;80.80;;;;;;5032641;28;20021;-81
2021/01/25 07:23:45;;;;;;;8.80;5.38;;;1.30;80.80;;;;;;5032506;28;20028;-79
2021/01/25 07:26:13;;;;;;;10.63;6.13;;;1.30;80.70;;;;;;5032380;28;20040;-78
2021/01/25 07:28:39;;;;;;;11.40;6.68;;;1.30;81.50;;;;;;5032242;28;20049;-81
2021/01/25 07:31:06;;;;;;;10.02;4.38;;;1.30;80.80;;;;;;5032400;28;20025;-82
2021/01/25 07:33:31;;;;;;;7.95;3.95;;;1.30;80.80;;;;;;5039428;28;20386;-78
2021/01/25 07:36:00;;;;;;;3.00;2.10;;;1.40;80.90;;;;;;5036536;28;20029;-80
2021/01/25 07:38:28;;;;;;;6.95;3.25;;;1.40;80.90;;;;;;5036070;28;20048;-81
2021/01/25 07:40:57;;;;;;;10.13;5.78;;;1.40;80.90;;;;;;5035768;28;20539;-78
2021/01/25 07:43:25;;;;;;;11.32;5.65;;;1.40;82.10;;;;;;5035734;28;20355;-80
2021/01/25 07:45:51;;;;;;;8.73;5.10;;;1.40;81.30;;;;;;5035898;28;20025;-79
2021/01/25 07:48:17;;;;;;;8.18;4.57;;;1.50;81.50;;;;;;5035934;28;20107;-80
2021/01/25 07:50:53;;;;;;;8.73;4.78;;;1.50;81.40;;;;;;5035846;28;20104;-79
2021/01/25 07:53:18;;;;;;;12.52;6.35;;;1.60;81.40;;;;;;5035542;28;20097;-79
2021/01/25 07:55:44;;;;;;;10.52;5.05;;;1.60;81.40;;;;;;5035659;28;20108;-80
2021/01/25 07:58:11;;;;;;;11.73;6.75;;;1.60;81.40;;;;;;5035506;28;20033;-78
2021/01/25 08:00:40;;;;;;;7.82;5.43;;;1.70;81.40;;;;;;5034213;28;20029;-80
2021/01/25 08:03:21;;;;;;;11.05;6.35;;;1.70;81.40;;;;;;5035371;28;20052;-79
2021/01/25 08:05:49;;;;;;;19.50;10.43;;;1.80;81.40;;;;;;5035583;28;20022;-81
2021/01/25 08:08:15;;;;;;;18.13;9.90;;;1.90;81.30;;;;;;5035489;28;20025;-80
2021/01/25 08:10:41;;;;;;;14.63;7.88;;;1.90;81.20;;;;;;5035415;28;20036;-82
2021/01/25 08:13:19;;;;;;;16.33;7.50;;;2.00;81.00;;;;;;5035384;28;20072;-81
2021/01/25 08:16:09;;;;;;;20.15;10.65;;;2.00;80.90;;;;;;5035342;28;20061;-82
2021/01/25 08:18:49;;;;;;;13.48;8.65;;;2.10;80.60;;;;;;5035084;28;20021;-78
2021/01/25 08:21:20;;;;;;;15.80;8.20;;;2.10;80.20;;;;;;5035234;28;20033;-81
2021/01/25 08:23:49;;;;;;;15.40;7.85;;;2.10;80.20;;;;;;5035390;28;20028;-80
2021/01/25 08:26:24;;;;;;;12.15;6.25;;;2.10;80.30;;;;;;5035260;28;20021;-80
2021/01/25 08:28:55;;;;;;;;;;;2.20;80.30;;;;;;5035565;28;20018;-80
2021/01/25 08:31:55;;;;;;;5.47;3.33;;;2.10;80.50;;;;;;5035680;28;20338;-81
2021/01/25 08:34:30;;;;;;;8.13;3.80;;;2.10;80.40;;;;;;5029835;28;20104;-81
2021/01/25 08:36:59;;;;;;;4.93;2.00;;;2.00;80.70;;;;;;5038260;28;20057;-79
2021/01/25 08:39:35;;;;;;;8.38;3.17;;;2.00;80.50;;;;;;5035273;28;20053;-81
2021/01/25 08:42:01;;;;;;;;;;;1.80;80.90;;;;;;5035118;28;20029;-79
2021/01/25 08:44:27;;;;;;;4.57;2.05;;;1.90;81.20;;;;;;5032513;28;19911;-80
2021/01/25 08:46:53;;;;;;;5.10;2.50;;;1.80;81.40;;;;;;5033655;28;20025;-78
2021/01/25 08:49:23;;;;;;;4.38;1.67;;;1.80;82.60;;;;;;5034424;28;20536;-81
2021/01/25 08:52:05;;;;;;;1.48;0.75;;;1.90;81.70;;;;;;5034795;28;20029;-83
2021/01/25 08:54:37;;;;;;;1.15;0.70;;;1.90;81.00;;;;;;5032912;28;20033;-82
2021/01/25 08:57:15;;;;;;;1.08;0.82;;;1.70;81.40;;;;;;5036094;28;20363;-77
2021/01/25 08:59:43;;;;;;;17.08;6.88;;;1.80;81.80;;;;;;5034559;28;20026;-79
2021/01/25 09:02:21;;;;;;;5.93;1.98;;;1.80;82.00;;;;;;5033335;28;20077;-81
2021/01/25 09:04:52;;;;;;;2.78;1.73;;;1.80;81.40;;;;;;5033697;28;20029;-85
2021/01/25 09:07:20;;;;;;;4.10;1.20;;;1.70;80.50;;;;;;5034900;28;20033;-83
2021/01/25 09:09:47;;;;;;;2.80;1.05;;;1.50;81.10;;;;;;5033584;28;20030;-82
2021/01/25 09:12:14;;;;;;;2.00;0.65;;;1.40;81.50;;;;;;5037433;28;20014;-88
2021/01/25 09:14:41;;;;;;;0.60;0.60;;;1.50;81.70;;;;;;5033507;28;20065;-85
2021/01/25 09:17:08;;;;;;;2.58;0.80;;;1.50;81.40;;;;;;5033495;28;20021;-85
2021/01/25 09:19:35;;;;;;;2.35;0.77;;;1.50;82.60;;;;;;5033274;28;20025;-84
2021/01/25 09:22:00;;;;;;;3.72;0.93;;;1.40;81.80;;;;;;5032749;28;20033;-85
2021/01/25 09:24:26;;;;;;;0.88;0.80;;;1.30;82.80;;;;;;5033969;28;20034;-84
2021/01/25 09:26:53;;;;;;;1.63;0.80;;;1.30;82.90;;;;;;5033089;28;20069;-81
2021/01/25 09:29:19;;;;;;;8.30;3.17;;;1.30;82.90;;;;;;5034527;28;20088;-78
2021/01/25 09:31:45;;;;;;;2.42;1.52;;;1.40;82.90;;;;;;5034247;28;20017;-75
2021/01/25 09:34:11;;;;;;;1.00;0.90;;;1.40;82.70;;;;;;5034229;28;20041;-77
2021/01/25 09:36:37;;;;;;;2.75;1.08;;;1.50;82.20;;;;;;5033927;28;20028;-77
2021/01/25 09:39:03;;;;;;;1.73;0.85;;;1.40;81.60;;;;;;5030935;28;20034;-83
2021/01/25 09:41:31;;;;;;;1.00;0.80;;;1.40;81.90;;;;;;5032726;28;20022;-86
2021/01/25 09:43:56;;;;;;;3.88;1.25;;;1.30;82.00;;;;;;5032682;28;20500;-82
2021/01/25 09:46:23;;;;;;;2.30;1.20;;;1.30;82.40;;;;;;5032230;28;20029;-85
2021/01/25 09:48:49;;;;;;;4.28;1.85;;;1.20;83.40;;;;;;5017489;28;20045;-84
2021/01/25 09:51:15;;;;;;;3.40;1.40;;;1.30;83.50;;;;;;5034797;28;20032;-90
2021/01/25 09:53:41;;;;;;;4.88;2.10;;;1.50;83.10;;;;;;5015400;28;20030;-80
2021/01/25 09:56:06;;;;;;;3.88;1.40;;;1.50;82.00;;;;;;5006723;28;20041;-87
2021/01/25 09:58:34;;;;;;;4.93;1.40;;;1.60;81.10;;;;;;5032282;28;20382;-88
2021/01/25 10:01:00;;;;;;;2.78;1.60;;;1.70;80.80;;;;;;5036789;28;20112;-77
2021/01/25 10:03:26;;;;;;;4.78;1.33;;;1.80;80.50;;;;;;5034453;28;20073;-86
2021/01/25 10:05:51;;;;;;;3.95;1.52;;;1.90;79.60;;;;;;5036527;28;20097;-87
2021/01/25 10:08:17;;;;;;;3.70;1.35;;;1.70;78.80;;;;;;5039504;28;20609;-81
2021/01/25 10:10:43;;;;;;;3.67;1.63;;;1.70;79.50;;;;;;5046617;28;20021;-82
2021/01/25 10:13:10;;;;;;;3.50;1.27;;;1.80;78.60;;;;;;5048630;28;20131;-89
2021/01/25 10:15:36;;;;;;;3.25;1.30;;;1.90;78.40;;;;;;5045002;28;20500;-90
2021/01/25 10:18:02;;;;;;;3.38;1.17;;;2.00;77.60;;;;;;5040275;28;20018;-92
2021/01/25 10:20:29;;;;;;;2.97;1.70;;;2.10;76.80;;;;;;5021937;28;20078;-90
2021/01/25 10:22:56;;;;;;;2.25;1.02;;;2.10;76.50;;;;;;5047641;28;20021;-90
2021/01/25 10:25:22;;;;;;;4.18;1.20;;;2.10;76.20;;;;;;5044853;28;20029;-89
2021/01/25 10:27:47;;;;;;;2.55;1.20;;;1.90;75.50;;;;;;5036367;28;20025;-85
2021/01/25 10:30:15;;;;;;;5.65;1.45;;;2.00;75.50;;;;;;5035859;28;20044;-86
2021/01/25 10:32:41;;;;;;;3.97;1.30;;;1.90;75.50;;;;;;5050387;28;20486;-83
2021/01/25 10:35:08;;;;;;;3.70;1.58;;;2.00;76.70;;;;;;5047279;28;20128;-79
2021/01/25 10:37:34;;;;;;;2.10;1.33;;;2.20;75.60;;;;;;5046446;28;20072;-76
2021/01/25 10:40:00;;;;;;;2.15;0.85;;;2.40;74.20;;;;;;5032900;28;20033;-76
2021/01/25 10:42:25;;;;;;;3.13;1.23;;;2.40;73.00;;;;;;5016158;28;20026;-76
2021/01/25 10:44:52;;;;;;;3.70;1.40;;;2.60;72.90;;;;;;5034387;28;20055;-76
2021/01/25 10:47:21;;;;;;;5.28;1.38;;;2.50;72.30;;;;;;5033091;28;20029;-76
2021/01/25 10:49:47;;;;;;;3.53;1.88;;;2.60;72.40;;;;;;5033839;28;20087;-76
2021/01/25 10:52:13;;;;;;;1.83;1.00;;;2.70;72.00;;;;;;5033873;28;20072;-76
2021/01/25 10:54:38;;;;;;;3.33;1.83;;;2.50;71.80;;;;;;5032524;28;20038;-76
2021/01/25 10:57:07;;;;;;;3.22;1.05;;;2.60;71.70;;;;;;5033424;28;20025;-76
2021/01/25 10:59:33;;;;;;;2.65;1.55;;;2.60;71.10;;;;;;5032098;28;20060;-76
2021/01/25 11:01:58;;;;;;;5.95;2.25;;;2.50;70.50;;;;;;5033218;28;20082;-75
2021/01/25 11:04:24;;;;;;;1.42;0.80;;;2.50;71.00;;;;;;5033324;28;20100;-79
2021/01/25 11:06:52;;;;;;;1.10;0.82;;;2.70;70.60;;;;;;5041373;28;20021;-80
2021/01/25 11:09:18;;;;;;;4.45;1.20;;;2.70;70.10;;;;;;5047911;28;20060;-84
2021/01/25 11:11:44;;;;;;;2.92;0.95;;;2.80;69.50;;;;;;5036457;28;20029;-76
2021/01/25 11:14:11;;;;;;;2.53;1.33;;;2.80;69.80;;;;;;5035026;28;20124;-77
2021/01/25 11:16:37;;;;;;;3.55;0.90;;;2.80;68.90;;;;;;5036241;28;20355;-84
2021/01/25 11:19:02;;;;;;;4.32;1.13;;;2.70;68.50;;;;;;5036045;28;20025;-76
2021/01/25 11:21:28;;;;;;;3.13;1.10;;;2.80;69.10;;;;;;5036064;28;20113;-80
2021/01/25 11:23:54;;;;;;;1.83;0.70;;;2.90;69.10;;;;;;5035822;28;20018;-74
2021/01/25 11:26:20;;;;;;;4.85;0.88;;;3.00;68.90;;;;;;5035664;28;20030;-84
2021/01/25 11:28:47;;;;;;;0.95;0.60;;;2.80;68.30;;;;;;5036267;28;20021;-86
2021/01/25 11:31:13;;;;;;;1.15;0.73;;;2.90;68.20;;;;;;5036663;28;20032;-83
2021/01/25 11:33:39;;;;;;;2.65;0.85;;;3.00;67.60;;;;;;5035803;28;20033;-85
2021/01/25 11:36:06;;;;;;;2.67;1.02;;;3.10;67.90;;;;;;5035398;28;20382;-85
2021/01/25 11:38:31;;;;;;;1.80;0.70;;;3.00;67.80;;;;;;5035248;28;20025;-85
2021/01/25 11:40:57;;;;;;;2.65;0.90;;;3.20;67.40;;;;;;5035577;28;20029;-83
2021/01/25 11:43:23;;;;;;;2.47;0.82;;;3.30;67.40;;;;;;5035082;28;20402;-82
2021/01/25 11:45:52;;;;;;;2.72;0.90;;;3.40;67.00;;;;;;5036705;28;20083;-83
2021/01/25 11:48:19;;;;;;;1.27;0.65;;;3.80;66.10;;;;;;5035321;28;20029;-85
2021/01/25 11:50:46;;;;;;;1.13;0.73;;;4.10;65.20;;;;;;5034975;28;20103;-85
2021/01/25 11:53:12;;;;;;;1.90;0.82;;;4.50;63.50;;;;;;5034907;28;20068;-84
2021/01/25 11:55:38;;;;;;;2.60;1.23;;;4.90;62.10;;;;;;5035149;28;20037;-85
2021/01/25 11:58:04;;;;;;;2.38;1.20;;;5.30;60.70;;;;;;5035560;28;20028;-85
2021/01/25 12:00:31;;;;;;;7.85;1.10;;;5.30;58.90;;;;;;5035226;28;20032;-86
2021/01/25 12:02:57;;;;;;;1.77;0.77;;;5.50;57.70;;;;;;5019306;28;20060;-85
2021/01/25 12:05:23;;;;;;;0.85;0.50;;;5.90;57.30;;;;;;5035358;28;20026;-85
2021/01/25 12:07:49;;;;;;;1.42;0.75;;;6.60;55.70;;;;;;5035522;28;20045;-82
2021/01/25 12:10:14;;;;;;;4.97;1.83;;;6.60;53.90;;;;;;5035162;28;20072;-83
2021/01/25 12:12:40;;;;;;;4.38;1.73;;;6.60;53.30;;;;;;5036516;28;20022;-86
2021/01/25 12:15:07;;;;;;;2.00;1.45;;;6.40;53.30;;;;;;5035071;28;20485;-82
2021/01/25 12:17:33;;;;;;;3.08;1.20;;;6.50;53.30;;;;;;5036893;28;20026;-86
2021/01/25 12:19:59;;;;;;;5.78;1.70;;;7.40;52.50;;;;;;5035720;28;20029;-85
2021/01/25 12:22:25;;;;;;;2.03;0.90;;;7.50;51.60;;;;;;5035915;28;20045;-86
2021/01/25 12:24:50;;;;;;;5.22;1.70;;;7.50;50.60;;;;;;5039478;28;20030;-86
2021/01/25 12:27:16;;;;;;;4.93;1.10;;;7.40;50.20;;;;;;5036147;28;20088;-86
2021/01/25 12:29:42;;;;;;;4.47;1.30;;;7.70;50.40;;;;;;5039640;28;20040;-85
2021/01/25 12:32:08;;;;;;;5.90;1.90;;;7.40;49.20;;;;;;5018469;28;20056;-83
2021/01/25 12:34:36;;;;;;;2.22;1.10;;;6.00;51.10;;;;;;5037053;28;20060;-85
2021/01/25 12:37:02;;;;;;;5.75;1.67;;;5.30;53.40;;;;;;5039363;28;20025;-84
2021/01/25 12:39:28;;;;;;;6.07;1.08;;;4.80;55.50;;;;;;5034960;28;20029;-85
2021/01/25 12:41:54;;;;;;;5.28;1.20;;;4.50;57.90;;;;;;5058223;28;20040;-81
2021/01/25 12:44:21;;;;;;;3.38;0.80;;;4.20;59.50;;;;;;5057319;28;20067;-80
2021/01/25 12:46:50;;;;;;;1.55;0.60;;;4.10;60.90;;;;;;5047558;28;20075;-75
2021/01/25 12:49:17;;;;;;;1.00;0.50;;;4.00;61.00;;;;;;5017653;28;20040;-76
2021/01/25 12:51:43;;;;;;;1.52;0.80;;;3.90;61.70;;;;;;5033468;28;20021;-77
2021/01/25 12:54:11;;;;;;;1.42;0.80;;;3.60;62.30;;;;;;5034823;28;20045;-77
2021/01/25 12:56:36;;;;;;;2.25;0.60;;;3.40;63.40;;;;;;5033502;28;20021;-78
2021/01/25 12:59:03;;;;;;;1.42;0.60;;;3.30;64.60;;;;;;5033759;28;20071;-80